Bosporus Highway — 3EXG9 — position and weather

sailwx.info

Track history (hours):
 
Tides and Currents Weather Stations Pressure Air Temp Water Temp Dewpoint Dewpoint Depression Visibility Wind Speed Wind Dir Waves Ship Positions

Bosporus Highway

Last reported at 2017-Nov-18 01:57 UTC. Time now 2017-Nov-23 01:27 UTC.
Position N 30°18' W 081°13'.

Length 199 m; draft 9.2 m.

Type: Cargo ship. MMSI: 372981000.

Date/timePositionNaut miles runAvg speedWind from/ knotsBaromVisibWave heightAir tempDewpointWater temp
2017-Nov-18 01:57N 30°18' W 081°13'4 9.6
2017-Nov-18 01:30N 30°21' W 081°16'5 9.4
2017-Nov-18 01:00N 30°24' W 081°21'4 8.3
2017-Nov-18 00:30N 30°24' W 081°26'2 4.9
2017-Nov-18 00:00N 30°24' W 081°28'4 7.6
2017-Nov-17 23:30N 30°23' W 081°33'1 1.4
2017-Nov-17 23:00N 30°24' W 081°33'0 0.0
2017-Nov-17 22:27N 30°24' W 081°33'0 0.0
2017-Nov-17 21:57N 30°24' W 081°33'0 0.0
2017-Nov-17 21:27N 30°24' W 081°33'0 0.0
2017-Nov-17 21:00N 30°24' W 081°33'0 0.0
2017-Nov-17 20:30N 30°24' W 081°33'0 0.0
2017-Nov-17 20:00N 30°24' W 081°33'0 0.0
2017-Nov-17 19:30N 30°24' W 081°33'0 0.0
2017-Nov-17 19:00N 30°24' W 081°33'26711.1
2017-Nov-16 18:52N 26°20' W 079°28'617.1
2017-Nov-16 18:30N 26°14' W 079°29'917.2
2017-Nov-16 18:00N 26°06' W 079°31'917.1
2017-Nov-16 17:30N 25°57' W 079°32'917.2
2017-Nov-16 17:00N 25°49' W 079°33'917.1
2017-Nov-16 16:30N 25°40' W 079°35'816.9
2017-Nov-16 16:00N 25°32' W 079°37'  
2017-Nov-11 06:44N 19°44' W 096°09'314.7
2017-Nov-11 06:30N 19°41' W 096°07'714.7
2017-Nov-11 06:00N 19°35' W 096°04'714.6
2017-Nov-11 05:30N 19°28' W 096°01'714.8
2017-Nov-11 05:00N 19°21' W 095°58'714.3
2017-Nov-11 04:30N 19°14' W 095°58'612.8
2017-Nov-11 04:00N 19°11' W 096°04'4 7.9
2017-Nov-11 03:31N 19°12' W 096°08'0 0.7
2017-Nov-11 02:59N 19°13' W 096°08'0 0.0
2017-Nov-11 02:29N 19°13' W 096°08'0 0.0
2017-Nov-11 01:56N 19°13' W 096°08'0 0.0
2017-Nov-11 01:29N 19°13' W 096°08'0 0.0
2017-Nov-11 00:59N 19°13' W 096°08'0 0.0
2017-Nov-11 00:29N 19°13' W 096°08'0 0.0
2017-Nov-10 23:59N 19°13' W 096°08'0 0.0
2017-Nov-10 23:29N 19°13' W 096°08'0 0.0
2017-Nov-10 22:59N 19°13' W 096°08'0 0.0
2017-Nov-10 22:29N 19°13' W 096°08'0 0.0
2017-Nov-10 21:59N 19°13' W 096°08'0 0.0
2017-Nov-10 21:29N 19°13' W 096°08'0 0.0
2017-Nov-10 20:59N 19°13' W 096°08'0 0.0
2017-Nov-10 20:26N 19°13' W 096°08'0 0.0
2017-Nov-10 19:56N 19°13' W 096°08'0 0.0
2017-Nov-10 19:29N 19°13' W 096°08'0 0.0
2017-Nov-10 18:59N 19°13' W 096°08'0 0.0
2017-Nov-10 18:29N 19°13' W 096°08'0 0.0
2017-Nov-10 17:59N 19°13' W 096°08'0 0.0
2017-Nov-10 17:29N 19°13' W 096°08'0 0.0
2017-Nov-10 16:59N 19°13' W 096°08'0 0.0
2017-Nov-10 16:29N 19°13' W 096°08'0 0.0
2017-Nov-10 15:53N 19°13' W 096°08'0 0.0
2017-Nov-10 15:29N 19°13' W 096°08'0 0.0
2017-Nov-10 14:59N 19°13' W 096°08'0 0.0
2017-Nov-10 14:29N 19°13' W 096°08'0 0.0
2017-Nov-10 13:59N 19°13' W 096°08'0 0.0
2017-Nov-10 13:20N 19°13' W 096°08'0 0.0
2017-Nov-10 12:59N 19°13' W 096°08'0 0.0
2017-Nov-10 12:29N 19°13' W 096°08'0 0.0
2017-Nov-10 11:59N 19°13' W 096°08'0 0.0
2017-Nov-10 11:29N 19°13' W 096°08'0 0.0
2017-Nov-10 10:56N 19°13' W 096°08'0 0.0
2017-Nov-10 10:20N 19°13' W 096°08'0 0.0
2017-Nov-10 09:56N 19°13' W 096°08'0 0.0
2017-Nov-10 09:29N 19°13' W 096°08'0 0.0
2017-Nov-10 08:59N 19°13' W 096°08'0 0.0
2017-Nov-10 08:29N 19°13' W 096°08'0 0.0
2017-Nov-10 07:59N 19°13' W 096°08'0 0.0
2017-Nov-10 07:29N 19°13' W 096°08'0 0.0
2017-Nov-10 06:59N 19°13' W 096°08'0 0.0
2017-Nov-10 06:29N 19°13' W 096°08'0 0.0
2017-Nov-10 05:59N 19°13' W 096°08'0 0.0
2017-Nov-10 05:29N 19°13' W 096°08'0 0.0
2017-Nov-10 04:59N 19°13' W 096°08'0 0.0
2017-Nov-10 04:29N 19°13' W 096°08'0 0.0
2017-Nov-10 03:59N 19°13' W 096°08'0 0.0
2017-Nov-10 03:29N 19°13' W 096°08'0 0.0
2017-Nov-10 02:59N 19°13' W 096°08'0 0.0
2017-Nov-10 02:29N 19°13' W 096°08'0 0.0
2017-Nov-10 01:59N 19°13' W 096°08'0 0.0
2017-Nov-10 01:29N 19°13' W 096°08'0 0.0
2017-Nov-10 00:59N 19°13' W 096°08'0 0.0
2017-Nov-10 00:29N 19°13' W 096°08'0 0.0
2017-Nov-09 23:59N 19°13' W 096°08'0 0.0
2017-Nov-09 23:20N 19°13' W 096°08'0 0.0
2017-Nov-09 22:59N 19°13' W 096°08'0 0.0
2017-Nov-09 22:29N 19°13' W 096°08'0 0.0
2017-Nov-09 21:59N 19°13' W 096°08'0 0.0
2017-Nov-09 21:26N 19°13' W 096°08'0 0.0
2017-Nov-09 20:59N 19°13' W 096°08'0 0.0
2017-Nov-09 20:29N 19°13' W 096°08'0 0.0
2017-Nov-09 19:59N 19°13' W 096°08'0 0.0
2017-Nov-09 19:29N 19°13' W 096°08'0 0.0
2017-Nov-09 18:59N 19°13' W 096°08'0 0.0
2017-Nov-09 18:29N 19°13' W 096°08'0 0.0
2017-Nov-09 17:59N 19°13' W 096°08'0 0.0
2017-Nov-09 17:29N 19°13' W 096°08'0 0.0
2017-Nov-09 16:59N 19°13' W 096°08'0 0.0
2017-Nov-09 16:26N 19°13' W 096°08'0 0.0
2017-Nov-09 15:59N 19°13' W 096°08'0 0.0
2017-Nov-09 15:29N 19°13' W 096°08'0 0.0
2017-Nov-09 14:59N 19°13' W 096°08'0 0.0
2017-Nov-09 14:31N 19°13' W 096°08'1 1.7
2017-Nov-09 14:00N 19°12' W 096°08'3 6.1
2017-Nov-09 13:30N 19°12' W 096°04'4 7.1
2017-Nov-09 13:00N 19°10' W 096°01'2 3.1
2017-Nov-09 12:25N 19°08' W 096°00'0 0.1
2017-Nov-09 11:49N 19°08' W 096°00'0 0.0
2017-Nov-09 11:25N 19°08' W 096°00'0 0.0
2017-Nov-09 10:55N 19°08' W 096°00'0 0.0
2017-Nov-09 10:25N 19°08' W 096°00'0 0.0
2017-Nov-09 09:55N 19°08' W 096°00'0 0.0
2017-Nov-09 09:19N 19°08' W 096°00'0 0.1
2017-Nov-09 08:55N 19°08' W 096°00'0 0.1
2017-Nov-09 08:25N 19°08' W 096°00'0 0.0
2017-Nov-09 07:55N 19°08' W 096°00'0 0.1
2017-Nov-09 07:25N 19°08' W 096°00'0 0.1
2017-Nov-09 06:55N 19°08' W 096°00'0 0.0
2017-Nov-09 06:19N 19°08' W 096°00'0 0.0
2017-Nov-09 05:55N 19°08' W 096°00'0 0.0
2017-Nov-09 05:25N 19°08' W 096°00'0 0.0
2017-Nov-09 04:55N 19°08' W 096°00'0 0.0
2017-Nov-09 04:25N 19°08' W 096°00'0 0.0
2017-Nov-09 03:49N 19°08' W 096°00'0 0.0
2017-Nov-09 03:25N 19°08' W 096°00'0 0.0
2017-Nov-09 02:55N 19°08' W 096°00'0 0.0
2017-Nov-09 02:25N 19°08' W 096°00'0 0.0
2017-Nov-09 01:55N 19°08' W 096°00'0 0.0
2017-Nov-09 01:25N 19°08' W 096°00'0 0.0
2017-Nov-09 00:55N 19°08' W 096°00'0 0.0
2017-Nov-09 00:25N 19°08' W 096°00'0 0.0
2017-Nov-08 23:55N 19°08' W 096°00'0 0.0
2017-Nov-08 23:25N 19°08' W 096°00'0 0.0
2017-Nov-08 22:55N 19°08' W 096°00'0 0.0
2017-Nov-08 22:19N 19°08' W 096°00'0 0.0
2017-Nov-08 21:49N 19°08' W 096°00'0 0.1
2017-Nov-08 21:25N 19°08' W 096°00'0 0.0
2017-Nov-08 20:55N 19°08' W 096°00'0 0.0
2017-Nov-08 20:25N 19°08' W 096°00'0 0.0
2017-Nov-08 19:49N 19°08' W 096°00'0 0.0
2017-Nov-08 19:25N 19°08' W 096°00'0 0.0
2017-Nov-08 18:55N 19°08' W 096°00'0 0.0
2017-Nov-08 18:28N 19°08' W 096°00'0 0.0
2017-Nov-08 17:55N 19°08' W 096°00'0 0.0
2017-Nov-08 17:25N 19°08' W 096°00'0 0.0
2017-Nov-08 16:55N 19°08' W 096°00'0 0.0
2017-Nov-08 16:28N 19°08' W 096°00'0 0.8
2017-Nov-08 16:01N 19°08' W 096°00'5 9.7
2017-Nov-08 15:31N 19°13' W 095°60'815.7
2017-Nov-08 15:00N 19°20' W 096°00'815.8
2017-Nov-08 14:30N 19°28' W 095°59'815.9
2017-Nov-08 14:00N 19°36' W 095°57'816.2
2017-Nov-08 13:31N 19°44' W 095°56'  
Track history (hours):
 
Tides and Currents Weather Stations Pressure Air Temp Water Temp Dewpoint Dewpoint Depression Visibility Wind Speed Wind Dir Waves Ship Positions

Bosporus Highway

Last reported at 2017-Nov-18 01:57 UTC. Time now 2017-Nov-23 01:27 UTC.
Position N 30°18' W 081°13'.

Length 199 m; draft 9.2 m.

Type: Cargo ship. MMSI: 372981000.

Date/timePositionNaut miles runAvg speedWind from/ knotsBaromVisibWave heightAir tempDewpointWater temp
2017-Nov-18 01:57N 30°18' W 081°13'4 9.6
2017-Nov-18 01:30N 30°21' W 081°16'5 9.4
2017-Nov-18 01:00N 30°24' W 081°21'4 8.3
2017-Nov-18 00:30N 30°24' W 081°26'2 4.9
2017-Nov-18 00:00N 30°24' W 081°28'4 7.6
2017-Nov-17 23:30N 30°23' W 081°33'1 1.4
2017-Nov-17 23:00N 30°24' W 081°33'0 0.0
2017-Nov-17 22:27N 30°24' W 081°33'0 0.0
2017-Nov-17 21:57N 30°24' W 081°33'0 0.0
2017-Nov-17 21:27N 30°24' W 081°33'0 0.0
2017-Nov-17 21:00N 30°24' W 081°33'0 0.0
2017-Nov-17 20:30N 30°24' W 081°33'0 0.0
2017-Nov-17 20:00N 30°24' W 081°33'0 0.0
2017-Nov-17 19:30N 30°24' W 081°33'0 0.0
2017-Nov-17 19:00N 30°24' W 081°33'26711.1
2017-Nov-16 18:52N 26°20' W 079°28'617.1
2017-Nov-16 18:30N 26°14' W 079°29'917.2
2017-Nov-16 18:00N 26°06' W 079°31'917.1
2017-Nov-16 17:30N 25°57' W 079°32'917.2
2017-Nov-16 17:00N 25°49' W 079°33'917.1
2017-Nov-16 16:30N 25°40' W 079°35'816.9
2017-Nov-16 16:00N 25°32' W 079°37'  
2017-Nov-11 06:44N 19°44' W 096°09'314.7
2017-Nov-11 06:30N 19°41' W 096°07'714.7
2017-Nov-11 06:00N 19°35' W 096°04'714.6
2017-Nov-11 05:30N 19°28' W 096°01'714.8
2017-Nov-11 05:00N 19°21' W 095°58'714.3
2017-Nov-11 04:30N 19°14' W 095°58'612.8
2017-Nov-11 04:00N 19°11' W 096°04'4 7.9
2017-Nov-11 03:31N 19°12' W 096°08'0 0.7
2017-Nov-11 02:59N 19°13' W 096°08'0 0.0
2017-Nov-11 02:29N 19°13' W 096°08'0 0.0
2017-Nov-11 01:56N 19°13' W 096°08'0 0.0
2017-Nov-11 01:29N 19°13' W 096°08'0 0.0
2017-Nov-11 00:59N 19°13' W 096°08'0 0.0
2017-Nov-11 00:29N 19°13' W 096°08'0 0.0
2017-Nov-10 23:59N 19°13' W 096°08'0 0.0
2017-Nov-10 23:29N 19°13' W 096°08'0 0.0
2017-Nov-10 22:59N 19°13' W 096°08'0 0.0
2017-Nov-10 22:29N 19°13' W 096°08'0 0.0
2017-Nov-10 21:59N 19°13' W 096°08'0 0.0
2017-Nov-10 21:29N 19°13' W 096°08'0 0.0
2017-Nov-10 20:59N 19°13' W 096°08'0 0.0
2017-Nov-10 20:26N 19°13' W 096°08'0 0.0
2017-Nov-10 19:56N 19°13' W 096°08'0 0.0
2017-Nov-10 19:29N 19°13' W 096°08'0 0.0
2017-Nov-10 18:59N 19°13' W 096°08'0 0.0
2017-Nov-10 18:29N 19°13' W 096°08'0 0.0
2017-Nov-10 17:59N 19°13' W 096°08'0 0.0
2017-Nov-10 17:29N 19°13' W 096°08'0 0.0
2017-Nov-10 16:59N 19°13' W 096°08'0 0.0
2017-Nov-10 16:29N 19°13' W 096°08'0 0.0
2017-Nov-10 15:53N 19°13' W 096°08'0 0.0
2017-Nov-10 15:29N 19°13' W 096°08'0 0.0
2017-Nov-10 14:59N 19°13' W 096°08'0 0.0
2017-Nov-10 14:29N 19°13' W 096°08'0 0.0
2017-Nov-10 13:59N 19°13' W 096°08'0 0.0
2017-Nov-10 13:20N 19°13' W 096°08'0 0.0
2017-Nov-10 12:59N 19°13' W 096°08'0 0.0
2017-Nov-10 12:29N 19°13' W 096°08'0 0.0
2017-Nov-10 11:59N 19°13' W 096°08'0 0.0
2017-Nov-10 11:29N 19°13' W 096°08'0 0.0
2017-Nov-10 10:56N 19°13' W 096°08'0 0.0
2017-Nov-10 10:20N 19°13' W 096°08'0 0.0
2017-Nov-10 09:56N 19°13' W 096°08'0 0.0
2017-Nov-10 09:29N 19°13' W 096°08'0 0.0
2017-Nov-10 08:59N 19°13' W 096°08'0 0.0
2017-Nov-10 08:29N 19°13' W 096°08'0 0.0
2017-Nov-10 07:59N 19°13' W 096°08'0 0.0
2017-Nov-10 07:29N 19°13' W 096°08'0 0.0
2017-Nov-10 06:59N 19°13' W 096°08'0 0.0
2017-Nov-10 06:29N 19°13' W 096°08'0 0.0
2017-Nov-10 05:59N 19°13' W 096°08'0 0.0
2017-Nov-10 05:29N 19°13' W 096°08'0 0.0
2017-Nov-10 04:59N 19°13' W 096°08'0 0.0
2017-Nov-10 04:29N 19°13' W 096°08'0 0.0
2017-Nov-10 03:59N 19°13' W 096°08'0 0.0
2017-Nov-10 03:29N 19°13' W 096°08'0 0.0
2017-Nov-10 02:59N 19°13' W 096°08'0 0.0
2017-Nov-10 02:29N 19°13' W 096°08'0 0.0
2017-Nov-10 01:59N 19°13' W 096°08'0 0.0
2017-Nov-10 01:29N 19°13' W 096°08'0 0.0
2017-Nov-10 00:59N 19°13' W 096°08'0 0.0
2017-Nov-10 00:29N 19°13' W 096°08'0 0.0
2017-Nov-09 23:59N 19°13' W 096°08'0 0.0
2017-Nov-09 23:20N 19°13' W 096°08'0 0.0
2017-Nov-09 22:59N 19°13' W 096°08'0 0.0
2017-Nov-09 22:29N 19°13' W 096°08'0 0.0
2017-Nov-09 21:59N 19°13' W 096°08'0 0.0
2017-Nov-09 21:26N 19°13' W 096°08'0 0.0
2017-Nov-09 20:59N 19°13' W 096°08'0 0.0
2017-Nov-09 20:29N 19°13' W 096°08'0 0.0
2017-Nov-09 19:59N 19°13' W 096°08'0 0.0
2017-Nov-09 19:29N 19°13' W 096°08'0 0.0
2017-Nov-09 18:59N 19°13' W 096°08'0 0.0
2017-Nov-09 18:29N 19°13' W 096°08'0 0.0
2017-Nov-09 17:59N 19°13' W 096°08'0 0.0
2017-Nov-09 17:29N 19°13' W 096°08'0 0.0
2017-Nov-09 16:59N 19°13' W 096°08'0 0.0
2017-Nov-09 16:26N 19°13' W 096°08'0 0.0
2017-Nov-09 15:59N 19°13' W 096°08'0 0.0
2017-Nov-09 15:29N 19°13' W 096°08'0 0.0
2017-Nov-09 14:59N 19°13' W 096°08'0 0.0
2017-Nov-09 14:31N 19°13' W 096°08'1 1.7
2017-Nov-09 14:00N 19°12' W 096°08'3 6.1
2017-Nov-09 13:30N 19°12' W 096°04'4 7.1
2017-Nov-09 13:00N 19°10' W 096°01'2 3.1
2017-Nov-09 12:25N 19°08' W 096°00'0 0.1
2017-Nov-09 11:49N 19°08' W 096°00'0 0.0
2017-Nov-09 11:25N 19°08' W 096°00'0 0.0
2017-Nov-09 10:55N 19°08' W 096°00'0 0.0
2017-Nov-09 10:25N 19°08' W 096°00'0 0.0
2017-Nov-09 09:55N 19°08' W 096°00'0 0.0
2017-Nov-09 09:19N 19°08' W 096°00'0 0.1
2017-Nov-09 08:55N 19°08' W 096°00'0 0.1
2017-Nov-09 08:25N 19°08' W 096°00'0 0.0
2017-Nov-09 07:55N 19°08' W 096°00'0 0.1
2017-Nov-09 07:25N 19°08' W 096°00'0 0.1
2017-Nov-09 06:55N 19°08' W 096°00'0 0.0
2017-Nov-09 06:19N 19°08' W 096°00'0 0.0
2017-Nov-09 05:55N 19°08' W 096°00'0 0.0
2017-Nov-09 05:25N 19°08' W 096°00'0 0.0
2017-Nov-09 04:55N 19°08' W 096°00'0 0.0
2017-Nov-09 04:25N 19°08' W 096°00'0 0.0
2017-Nov-09 03:49N 19°08' W 096°00'0 0.0
2017-Nov-09 03:25N 19°08' W 096°00'0 0.0
2017-Nov-09 02:55N 19°08' W 096°00'0 0.0
2017-Nov-09 02:25N 19°08' W 096°00'0 0.0
2017-Nov-09 01:55N 19°08' W 096°00'0 0.0
2017-Nov-09 01:25N 19°08' W 096°00'0 0.0
2017-Nov-09 00:55N 19°08' W 096°00'0 0.0
2017-Nov-09 00:25N 19°08' W 096°00'0 0.0
2017-Nov-08 23:55N 19°08' W 096°00'0 0.0
2017-Nov-08 23:25N 19°08' W 096°00'0 0.0
2017-Nov-08 22:55N 19°08' W 096°00'0 0.0
2017-Nov-08 22:19N 19°08' W 096°00'0 0.0
2017-Nov-08 21:49N 19°08' W 096°00'0 0.1
2017-Nov-08 21:25N 19°08' W 096°00'0 0.0
2017-Nov-08 20:55N 19°08' W 096°00'0 0.0
2017-Nov-08 20:25N 19°08' W 096°00'0 0.0
2017-Nov-08 19:49N 19°08' W 096°00'0 0.0
2017-Nov-08 19:25N 19°08' W 096°00'0 0.0
2017-Nov-08 18:55N 19°08' W 096°00'0 0.0
2017-Nov-08 18:28N 19°08' W 096°00'0 0.0
2017-Nov-08 17:55N 19°08' W 096°00'0 0.0
2017-Nov-08 17:25N 19°08' W 096°00'0 0.0
2017-Nov-08 16:55N 19°08' W 096°00'0 0.0
2017-Nov-08 16:28N 19°08' W 096°00'0 0.8
2017-Nov-08 16:01N 19°08' W 096°00'5 9.7
2017-Nov-08 15:31N 19°13' W 095°60'815.7
2017-Nov-08 15:00N 19°20' W 096°00'815.8
2017-Nov-08 14:30N 19°28' W 095°59'815.9
2017-Nov-08 14:00N 19°36' W 095°57'816.2
2017-Nov-08 13:31N 19°44' W 095°56'  

Dump ship's entire track history